CYNL

SPECI CYNL 300421Z AUTO 33004KT 9SM OVC030 M08/M11 A3003 RMK AO1 SLP214
SPECI
LOCATION
CYNL
DATE - TIME
300421Z
WIND
330 TRUE @ 4 KNOTS
VISIBILITY
9SM
RUNWAY VISUAL RANGE
NOT REPORTED
WEATHER
CLOUDINESS
OVC030
TEMP / DEWPOINT
-8 ºC / -11 ºC
ALTIMETER
30.03 in. Hg
RECENT WEATHER
NOT REPORTED
WIND SHEAR
NOT REPORTED
REMARKS
RMK AO1 SLP214
SEA LEVEL PRESSURE: hPa

CYNL

METAR CYNL 300400Z AUTO 33005KT 9SM FEW011 SCT015 OVC027 M08/M11 A3003 RMK AO1 SLP213
METAR
LOCATION
CYNL
DATE - TIME
300400Z
WIND
330 TRUE @ 5 KNOTS
VISIBILITY
9SM
RUNWAY VISUAL RANGE
NOT REPORTED
WEATHER
CLOUDINESS
FEW011 SCT015 OVC027
TEMP / DEWPOINT
-8 ºC / -11 ºC
ALTIMETER
30.03 in. Hg
RECENT WEATHER
NOT REPORTED
WIND SHEAR
NOT REPORTED
REMARKS
RMK AO1 SLP213
SEA LEVEL PRESSURE: hPa

CYNL

SPECI CYNL 300354Z AUTO 00005KT 9SM SCT014 OVC025 M08/M11 A3002 RMK AO1 SLP213
SPECI
LOCATION
CYNL
DATE - TIME
300354Z
WIND
000 TRUE @ 5 KNOTS
VISIBILITY
9SM
RUNWAY VISUAL RANGE
NOT REPORTED
WEATHER
CLOUDINESS
SCT014 OVC025
TEMP / DEWPOINT
-8 ºC / -11 ºC
ALTIMETER
30.02 in. Hg
RECENT WEATHER
NOT REPORTED
WIND SHEAR
NOT REPORTED
REMARKS
RMK AO1 SLP213
SEA LEVEL PRESSURE: hPa

Your time UTC time
 
 
Weather data provided by AXYS Technologies Inc., www.axystechnologies.com
 
Station History